createdAt,value
2023-01-17T00:01:16.806Z,100458.00
2023-01-17T00:03:32.501Z,100460.20
2023-01-17T00:06:05.598Z,100459.52
2023-01-17T00:08:52.590Z,100463.13
2023-01-17T00:11:06.639Z,100468.04
2023-01-17T00:13:19.776Z,100471.90
2023-01-17T00:15:35.351Z,100472.86
2023-01-17T00:17:49.882Z,100475.27
2023-01-17T00:20:20.442Z,100479.92
2023-01-17T00:22:52.080Z,100484.16
2023-01-17T00:25:21.947Z,100489.23
2023-01-17T00:27:34.611Z,100489.92
2023-01-17T00:29:46.652Z,100491.60
2023-01-17T00:31:55.611Z,100489.77
2023-01-17T00:34:08.353Z,100489.30
2023-01-17T00:36:19.534Z,100489.67
2023-01-17T00:38:33.127Z,100491.48
2023-01-17T00:40:45.309Z,100494.11
2023-01-17T00:43:15.259Z,100493.80
2023-01-17T00:45:44.903Z,100494.05
2023-01-17T00:48:15.768Z,100496.30
2023-01-17T00:50:46.460Z,100499.17
2023-01-17T00:53:17.684Z,100502.67
2023-01-17T00:55:48.105Z,100505.48
2023-01-17T00:58:18.799Z,100510.55
2023-01-17T01:00:49.725Z,100510.94
2023-01-17T01:03:20.242Z,100511.02
2023-01-17T01:05:50.536Z,100518.34
2023-01-17T01:08:21.420Z,100525.42
2023-01-17T01:10:52.201Z,100531.71
2023-01-17T01:13:22.630Z,100536.81
2023-01-17T01:15:53.178Z,100536.88
2023-01-17T01:18:27.270Z,100540.45
2023-01-17T01:20:57.846Z,100546.36
2023-01-17T01:23:29.475Z,100556.53
2023-01-17T01:26:00.695Z,100553.77
2023-01-17T01:28:36.219Z,100554.60
2023-01-17T01:31:07.540Z,100558.85
2023-01-17T01:33:22.252Z,100560.79
2023-01-17T01:35:36.695Z,100563.54
2023-01-17T01:37:52.089Z,100560.08
2023-01-17T01:40:05.497Z,100553.79
2023-01-17T01:42:21.934Z,100554.45
2023-01-17T01:44:53.741Z,100552.89
2023-01-17T01:47:08.014Z,100556.90
2023-01-17T01:49:25.915Z,100559.77
2023-01-17T01:51:43.345Z,100563.02
2023-01-17T01:54:03.569Z,100563.14
2023-01-17T01:56:18.599Z,100565.38
2023-01-17T01:58:38.060Z,100567.65
2023-01-17T02:00:52.753Z,100570.39
2023-01-17T02:03:10.288Z,100574.46
2023-01-17T02:05:25.442Z,100572.49
2023-01-17T02:07:43.738Z,100577.64
2023-01-17T02:09:58.849Z,100584.42
2023-01-17T02:12:13.580Z,100592.94
2023-01-17T02:14:27.532Z,100593.08
2023-01-17T02:16:57.423Z,100595.66
2023-01-17T02:19:26.356Z,100596.58
2023-01-17T02:21:49.102Z,100594.30
2023-01-17T02:24:37.968Z,100596.79
2023-01-17T02:27:10.532Z,100597.23
2023-01-17T02:30:04.033Z,100598.31
2023-01-17T02:32:26.778Z,100603.91
2023-01-17T02:34:50.441Z,100606.02
2023-01-17T02:37:11.745Z,100604.36
2023-01-17T02:39:30.176Z,100608.25
2023-01-17T02:41:47.195Z,100610.27
2023-01-17T02:44:02.060Z,100613.75
2023-01-17T02:46:15.353Z,100612.52
2023-01-17T02:48:30.843Z,100613.98
2023-01-17T02:50:55.482Z,100615.90
2023-01-17T02:53:25.328Z,100617.46
2023-01-17T02:55:51.778Z,100618.36
2023-01-17T02:58:18.651Z,100619.43
2023-01-17T03:00:41.327Z,100622.73
2023-01-17T03:03:03.638Z,100625.95
2023-01-17T03:05:23.496Z,100628.65
2023-01-17T03:07:41.847Z,100631.38
2023-01-17T03:10:01.319Z,100637.87
2023-01-17T03:12:16.561Z,100636.92
2023-01-17T03:14:30.033Z,100640.44
2023-01-17T03:16:43.359Z,100642.12
2023-01-17T03:18:57.100Z,100644.94
2023-01-17T03:21:14.554Z,100646.86
2023-01-17T03:23:29.650Z,100646.39
2023-01-17T03:25:45.379Z,100646.63
2023-01-17T03:28:00.283Z,100650.63
2023-01-17T03:30:17.152Z,100651.48
2023-01-17T03:32:31.467Z,100654.45
2023-01-17T03:34:44.421Z,100656.71
2023-01-17T03:36:58.658Z,100660.42
2023-01-17T03:39:12.691Z,100662.05
2023-01-17T03:41:27.312Z,100665.05
2023-01-17T03:43:40.872Z,100666.98
2023-01-17T03:45:55.550Z,100671.69
2023-01-17T03:48:08.247Z,100668.90
2023-01-17T03:50:21.113Z,100671.87
2023-01-17T03:52:33.734Z,100670.90
2023-01-17T03:54:47.314Z,100674.51
2023-01-17T03:57:00.284Z,100674.02
2023-01-17T03:59:13.325Z,100671.64
2023-01-17T04:01:26.522Z,100675.08
2023-01-17T04:03:39.146Z,100673.86
2023-01-17T04:05:53.009Z,100673.16
2023-01-17T04:08:08.152Z,100675.63
2023-01-17T04:10:22.488Z,100676.46
2023-01-17T04:12:37.499Z,100676.44
2023-01-17T04:14:51.061Z,100680.30
2023-01-17T04:17:05.513Z,100679.15
2023-01-17T04:19:19.538Z,100682.45
2023-01-17T04:21:32.535Z,100685.51
2023-01-17T04:23:45.899Z,100694.13
2023-01-17T04:26:00.287Z,100691.23
2023-01-17T04:28:15.567Z,100694.77
2023-01-17T04:30:29.850Z,100697.14
2023-01-17T04:32:43.178Z,100696.98
2023-01-17T04:34:57.349Z,100699.45
2023-01-17T04:37:10.311Z,100702.05
2023-01-17T04:39:23.437Z,100699.89
2023-01-17T04:41:36.766Z,100699.79
2023-01-17T04:43:50.884Z,100701.42
2023-01-17T04:46:06.135Z,100702.33
2023-01-17T04:48:22.346Z,100706.52
2023-01-17T04:50:35.905Z,100706.09
2023-01-17T04:52:50.683Z,100713.30
2023-01-17T04:55:05.329Z,100719.60
2023-01-17T04:57:19.139Z,100722.23
2023-01-17T04:59:33.187Z,100725.88
2023-01-17T05:01:47.923Z,100731.20
2023-01-17T05:04:01.797Z,100732.79
2023-01-17T05:06:15.960Z,100740.40
2023-01-17T05:08:30.578Z,100740.92
2023-01-17T05:10:44.148Z,100745.63
2023-01-17T05:13:02.736Z,100747.40
2023-01-17T05:15:17.096Z,100746.35
2023-01-17T05:17:30.828Z,100745.88
2023-01-17T05:19:45.086Z,100749.23
2023-01-17T05:22:04.877Z,100751.63
2023-01-17T05:24:19.036Z,100750.32
2023-01-17T05:26:32.840Z,100744.58
2023-01-17T05:28:47.062Z,100748.84
2023-01-17T05:31:01.265Z,100752.73
2023-01-17T05:33:15.017Z,100755.73
2023-01-17T05:35:29.597Z,100761.60
2023-01-17T05:37:49.984Z,100760.33
2023-01-17T05:40:03.153Z,100766.39
2023-01-17T05:42:15.564Z,100764.58
2023-01-17T05:44:28.708Z,100766.27
2023-01-17T05:46:41.405Z,100767.02
2023-01-17T05:48:54.651Z,100764.55
2023-01-17T05:51:07.240Z,100766.06
2023-01-17T05:53:20.643Z,100767.79
2023-01-17T05:55:34.909Z,100768.64
2023-01-17T05:57:48.245Z,100769.29
2023-01-17T06:00:01.586Z,100769.33
2023-01-17T06:02:19.413Z,100772.65
2023-01-17T06:04:34.064Z,100773.80
2023-01-17T06:06:47.983Z,100778.97
2023-01-17T06:09:01.050Z,100784.83
2023-01-17T06:11:16.079Z,100785.35
2023-01-17T06:13:29.483Z,100781.54
2023-01-17T06:15:43.486Z,100782.52
2023-01-17T06:17:56.785Z,100783.52
2023-01-17T06:20:12.121Z,100785.28
2023-01-17T06:22:25.813Z,100789.67
2023-01-17T06:24:40.741Z,100789.95
2023-01-17T06:26:54.406Z,100793.32
2023-01-17T06:29:07.917Z,100798.02
2023-01-17T06:31:21.510Z,100800.50
2023-01-17T06:33:35.979Z,100796.75
2023-01-17T06:35:53.512Z,100803.62
2023-01-17T06:38:07.257Z,100806.81
2023-01-17T06:40:21.400Z,100807.35
2023-01-17T06:42:34.456Z,100808.65
2023-01-17T06:44:48.181Z,100811.51
2023-01-17T06:47:01.293Z,100814.77
2023-01-17T06:49:15.514Z,100819.60
2023-01-17T06:51:28.809Z,100823.23
2023-01-17T06:53:42.326Z,100823.45
2023-01-17T06:55:58.638Z,100824.82
2023-01-17T06:58:13.988Z,100826.75
2023-01-17T07:00:29.652Z,100831.20
2023-01-17T07:02:48.794Z,100832.64
2023-01-17T07:05:02.818Z,100834.71
2023-01-17T07:07:16.156Z,100834.27
2023-01-17T07:09:29.293Z,100836.09
2023-01-17T07:11:42.535Z,100837.72
2023-01-17T07:13:57.501Z,100842.40
2023-01-17T07:16:12.661Z,100842.98
2023-01-17T07:18:28.350Z,100842.30
2023-01-17T07:20:44.376Z,100843.69
2023-01-17T07:22:57.844Z,100842.94
2023-01-17T07:25:12.506Z,100845.15
2023-01-17T07:27:25.724Z,100844.70
2023-01-17T07:29:38.852Z,100850.38
2023-01-17T07:31:54.198Z,100853.94
2023-01-17T07:34:07.674Z,100857.48
2023-01-17T07:36:23.313Z,100856.25
2023-01-17T07:38:36.452Z,100859.27
2023-01-17T07:40:49.832Z,100859.96
2023-01-17T07:43:15.226Z,100863.63
2023-01-17T07:45:29.297Z,100861.14
2023-01-17T07:47:43.279Z,100867.02
2023-01-17T07:49:56.429Z,100864.34
2023-01-17T07:52:12.449Z,100868.48
2023-01-17T07:54:26.444Z,100867.81
2023-01-17T07:56:40.927Z,100864.14
2023-01-17T07:58:53.270Z,100871.52
2023-01-17T08:01:10.809Z,100876.10
2023-01-17T08:03:24.962Z,100876.02
2023-01-17T08:05:38.369Z,100871.42
2023-01-17T08:07:52.007Z,100871.10
2023-01-17T08:10:07.794Z,100871.14
2023-01-17T08:12:21.503Z,100874.92
2023-01-17T08:14:34.762Z,100874.94
2023-01-17T08:16:47.987Z,100871.55
2023-01-17T08:19:01.577Z,100874.94
2023-01-17T08:21:20.290Z,100876.16
2023-01-17T08:23:34.645Z,100879.21
2023-01-17T08:25:47.763Z,100878.77
2023-01-17T08:28:02.755Z,100875.63
2023-01-17T08:30:17.334Z,100874.58
2023-01-17T08:32:31.647Z,100874.59
2023-01-17T08:34:44.394Z,100875.98
2023-01-17T08:36:58.728Z,100871.16
2023-01-17T08:39:14.130Z,100869.31
2023-01-17T08:41:28.855Z,100865.11
2023-01-17T08:43:42.424Z,100864.23
2023-01-17T08:45:56.980Z,100863.58
2023-01-17T08:48:12.343Z,100865.73
2023-01-17T08:50:27.119Z,100867.91
2023-01-17T08:52:41.458Z,100871.64
2023-01-17T08:54:55.076Z,100868.48
2023-01-17T08:57:09.263Z,100869.20
2023-01-17T08:59:22.149Z,100871.45
2023-01-17T09:01:43.308Z,100872.90
2023-01-17T09:03:57.840Z,100875.93
2023-01-17T09:06:15.003Z,100874.30
2023-01-17T09:08:28.968Z,100875.55
2023-01-17T09:10:42.567Z,100881.48
2023-01-17T09:12:57.510Z,100879.23
2023-01-17T09:15:15.686Z,100890.38
2023-01-17T09:17:28.724Z,100891.23
2023-01-17T09:19:48.861Z,100892.78
2023-01-17T09:22:02.925Z,100893.77
2023-01-17T09:24:16.114Z,100897.20
2023-01-17T09:26:31.717Z,100890.99
2023-01-17T09:28:45.319Z,100889.22
2023-01-17T09:30:59.872Z,100889.05
2023-01-17T09:33:14.240Z,100889.49
2023-01-17T09:35:28.669Z,100889.76
2023-01-17T09:37:42.211Z,100896.67
2023-01-17T09:39:56.116Z,100900.90
2023-01-17T09:42:23.183Z,100900.71
2023-01-17T09:44:44.882Z,100902.27
2023-01-17T09:47:02.378Z,100901.83
2023-01-17T09:49:27.284Z,100903.59
2023-01-17T09:51:43.664Z,100905.02
2023-01-17T09:53:59.258Z,100909.53
2023-01-17T09:56:19.171Z,100907.17
2023-01-17T09:58:46.397Z,100911.63
2023-01-17T10:01:15.880Z,100916.70
2023-01-17T10:03:52.981Z,100920.66
2023-01-17T10:06:22.527Z,100926.60
2023-01-17T10:09:01.836Z,100927.81
2023-01-17T10:11:48.421Z,100930.02
2023-01-17T10:14:09.523Z,100928.17
2023-01-17T10:16:36.617Z,100927.98
2023-01-17T10:19:08.851Z,100928.23
2023-01-17T10:21:34.074Z,100930.54
2023-01-17T10:24:02.313Z,100933.84
2023-01-17T10:26:18.963Z,100932.91
2023-01-17T10:28:36.814Z,100936.12
2023-01-17T10:30:53.676Z,100936.52
2023-01-17T10:33:19.747Z,100940.57
2023-01-17T10:35:40.147Z,100943.16
2023-01-17T10:37:57.883Z,100941.52
2023-01-17T10:40:21.042Z,100943.27
2023-01-17T10:42:48.951Z,100943.80
2023-01-17T10:45:08.968Z,100944.99
2023-01-17T10:47:26.163Z,100946.11
2023-01-17T10:49:41.051Z,100948.55
2023-01-17T10:52:13.443Z,100949.35
2023-01-17T10:54:28.656Z,100952.19
2023-01-17T10:56:43.452Z,100957.63
2023-01-17T10:59:12.086Z,100953.44
2023-01-17T11:01:27.445Z,100953.02
2023-01-17T11:03:41.550Z,100954.30
2023-01-17T11:06:23.222Z,100953.02
2023-01-17T11:08:57.481Z,100956.83
2023-01-17T11:11:11.257Z,100960.52
2023-01-17T11:13:37.175Z,100964.73
2023-01-17T11:15:57.439Z,100963.75
2023-01-17T11:18:18.799Z,100968.80
2023-01-17T11:20:39.290Z,100964.74
2023-01-17T11:23:07.931Z,100967.24
2023-01-17T11:25:36.111Z,100972.39
2023-01-17T11:28:03.926Z,100972.39
2023-01-17T11:30:27.247Z,100974.66
2023-01-17T11:32:40.577Z,100974.67
2023-01-17T11:35:19.135Z,100975.11
2023-01-17T11:37:32.669Z,100976.83
2023-01-17T11:39:49.096Z,100983.60
2023-01-17T11:42:03.214Z,100980.14
2023-01-17T11:44:31.402Z,100978.60
2023-01-17T11:46:44.413Z,100980.02
2023-01-17T11:49:00.507Z,100981.94
2023-01-17T11:51:33.152Z,100981.00
2023-01-17T11:53:50.956Z,100985.61
2023-01-17T11:56:09.626Z,100991.80
2023-01-17T11:58:23.023Z,100987.41
2023-01-17T12:00:42.362Z,100987.71
2023-01-17T12:03:25.651Z,100988.61
2023-01-17T12:05:54.555Z,100993.21
2023-01-17T12:08:17.952Z,100995.34
2023-01-17T12:10:36.991Z,100999.71
2023-01-17T12:13:20.536Z,100999.99
2023-01-17T12:15:52.146Z,101007.21
2023-01-17T12:18:32.978Z,101003.24
2023-01-17T12:20:52.217Z,101007.45
2023-01-17T12:23:30.677Z,101008.04
2023-01-17T12:25:58.823Z,101010.80
2023-01-17T12:28:28.898Z,101013.88
2023-01-17T12:31:05.617Z,101015.27
2023-01-17T12:33:27.354Z,101017.74
2023-01-17T12:35:44.818Z,101018.23
2023-01-17T12:38:06.267Z,101019.41
2023-01-17T12:40:28.058Z,101022.67
2023-01-17T12:42:47.568Z,101019.99
2023-01-17T12:45:07.578Z,101024.56
2023-01-17T12:47:22.638Z,101026.33
2023-01-17T12:49:46.704Z,101029.48
2023-01-17T12:52:08.607Z,101028.57
2023-01-17T12:54:27.125Z,101032.13
2023-01-17T12:56:45.094Z,101031.10
2023-01-17T12:59:06.228Z,101031.89
2023-01-17T13:01:27.677Z,101029.81
2023-01-17T13:03:57.961Z,101032.41
2023-01-17T13:06:18.860Z,101031.34
2023-01-17T13:08:39.883Z,101038.71
2023-01-17T13:10:59.514Z,101036.31
2023-01-17T13:13:25.140Z,101035.96
2023-01-17T13:15:44.962Z,101041.82
2023-01-17T13:18:03.952Z,101039.04
2023-01-17T13:20:27.996Z,101040.00
2023-01-17T13:22:44.977Z,101047.20
2023-01-17T13:25:09.985Z,101053.33
2023-01-17T13:27:40.851Z,101052.66
2023-01-17T13:30:16.389Z,101055.66
2023-01-17T13:32:54.504Z,101055.98
2023-01-17T13:35:23.960Z,101054.89
2023-01-17T13:37:55.921Z,101053.06
2023-01-17T13:40:30.297Z,101058.95
2023-01-17T13:42:57.864Z,101066.27
2023-01-17T13:45:25.483Z,101067.40
2023-01-17T13:47:44.763Z,101070.40
2023-01-17T13:49:59.476Z,101073.25
2023-01-17T13:52:33.595Z,101072.41
2023-01-17T13:54:55.434Z,101072.13
2023-01-17T13:57:44.713Z,101079.34
2023-01-17T13:59:58.913Z,101075.77
2023-01-17T14:02:43.482Z,101077.42
2023-01-17T14:05:16.293Z,101082.50
2023-01-17T14:07:34.736Z,101084.65
2023-01-17T14:09:52.143Z,101087.75
2023-01-17T14:12:27.617Z,101085.31
2023-01-17T14:14:54.836Z,101086.50
2023-01-17T14:20:21.796Z,101089.92
2023-01-17T14:22:36.148Z,101094.41
2023-01-17T14:25:03.057Z,101094.64
2023-01-17T14:27:25.465Z,101093.67
2023-01-17T14:29:50.060Z,101090.95
2023-01-17T14:32:07.494Z,101099.02
2023-01-17T14:34:23.398Z,101097.99
2023-01-17T14:36:34.958Z,101103.44
2023-01-17T14:38:47.909Z,101108.08
2023-01-17T14:41:00.898Z,101106.80
2023-01-17T14:43:15.860Z,101103.12
2023-01-17T14:45:31.096Z,101103.52
2023-01-17T14:47:41.672Z,101101.54
2023-01-17T14:50:10.691Z,101104.16
2023-01-17T14:52:23.924Z,101107.36
2023-01-17T14:54:34.392Z,101111.36
2023-01-17T14:56:44.000Z,101107.85
2023-01-17T14:59:17.397Z,101110.15
2023-01-17T15:01:27.935Z,101113.69
2023-01-17T15:03:44.888Z,101115.00
2023-01-17T15:05:57.010Z,101115.54
2023-01-17T15:08:07.342Z,101115.83
2023-01-17T15:10:20.784Z,101115.51
2023-01-17T15:12:30.295Z,101120.67
2023-01-17T15:14:41.885Z,101120.05
2023-01-17T15:16:52.336Z,101121.20
2023-01-17T15:19:02.315Z,101120.57
2023-01-17T15:21:17.602Z,101122.94
2023-01-17T15:23:32.113Z,101122.02
2023-01-17T15:25:42.836Z,101121.30
2023-01-17T15:27:53.057Z,101124.39
2023-01-17T15:30:04.580Z,101126.30
2023-01-17T15:32:23.237Z,101127.45
2023-01-17T15:34:34.880Z,101131.48
2023-01-17T15:36:44.629Z,101134.02
2023-01-17T15:39:00.528Z,101135.14
2023-01-17T15:41:23.249Z,101136.48
2023-01-17T15:43:36.353Z,101137.49
2023-01-17T15:45:57.601Z,101137.50
2023-01-17T15:48:42.337Z,101137.85
2023-01-17T15:51:01.572Z,101145.14
2023-01-17T15:53:32.823Z,101145.77
2023-01-17T15:55:49.860Z,101146.32
2023-01-17T15:57:59.933Z,101148.23
2023-01-17T16:00:21.106Z,101151.11
2023-01-17T16:02:45.299Z,101156.30
2023-01-17T16:04:55.894Z,101157.00
2023-01-17T16:07:22.866Z,101158.14
2023-01-17T16:09:43.097Z,101159.96
2023-01-17T16:11:52.833Z,101159.50
2023-01-17T16:14:02.469Z,101162.44
2023-01-17T16:16:17.671Z,101166.77
2023-01-17T16:18:28.919Z,101169.33
2023-01-17T16:20:42.766Z,101173.91
2023-01-17T16:22:53.232Z,101169.59
2023-01-17T16:25:03.450Z,101172.53
2023-01-17T16:27:13.482Z,101173.55
2023-01-17T16:29:23.406Z,101177.26
2023-01-17T16:31:34.103Z,101179.92
2023-01-17T16:33:43.882Z,101180.89
2023-01-17T16:35:55.340Z,101184.08
2023-01-17T16:38:07.352Z,101189.14
2023-01-17T16:40:15.869Z,101195.08
2023-01-17T16:42:27.774Z,101192.60
2023-01-17T16:44:40.975Z,101199.67
2023-01-17T16:46:50.581Z,101202.58
2023-01-17T16:49:00.743Z,101205.17
2023-01-17T16:51:13.644Z,101205.44
2023-01-17T16:53:25.549Z,101208.97
2023-01-17T16:55:34.982Z,101211.36
2023-01-17T16:57:44.618Z,101213.08
2023-01-17T16:59:54.287Z,101210.99
2023-01-17T17:02:05.597Z,101213.72
2023-01-17T17:04:16.606Z,101215.04
2023-01-17T17:06:26.365Z,101216.94
2023-01-17T17:08:37.662Z,101219.69
2023-01-17T17:10:47.293Z,101221.69
2023-01-17T17:12:57.127Z,101227.75
2023-01-17T17:15:07.502Z,101228.94
2023-01-17T17:17:17.399Z,101230.30
2023-01-17T17:19:28.523Z,101239.36
2023-01-17T17:21:39.099Z,101242.22
2023-01-17T17:23:51.364Z,101243.48
2023-01-17T17:26:01.553Z,101248.28
2023-01-17T17:28:13.212Z,101241.39
2023-01-17T17:30:22.974Z,101242.84
2023-01-17T17:32:32.721Z,101248.95
2023-01-17T17:34:42.581Z,101250.36
2023-01-17T17:36:53.521Z,101255.92
2023-01-17T17:39:04.401Z,101253.48
2023-01-17T17:41:14.237Z,101256.16
2023-01-17T17:43:26.432Z,101257.44
2023-01-17T17:45:34.277Z,101262.58
2023-01-17T17:47:44.392Z,101264.77
2023-01-17T17:49:54.283Z,101267.24
2023-01-17T17:52:09.461Z,101269.52
2023-01-17T17:54:20.278Z,101269.03
2023-01-17T17:56:31.332Z,101272.63
2023-01-17T17:58:41.733Z,101273.41
2023-01-17T18:00:52.188Z,101271.99
2023-01-17T18:03:02.023Z,101273.90
2023-01-17T18:05:13.290Z,101271.34
2023-01-17T18:07:23.224Z,101273.79
2023-01-17T18:09:33.253Z,101274.05
2023-01-17T18:11:44.943Z,101277.08
2023-01-17T18:13:57.174Z,101275.31
2023-01-17T18:16:09.496Z,101282.79
2023-01-17T18:18:19.374Z,101279.79
2023-01-17T18:20:29.143Z,101283.39
2023-01-17T18:22:39.020Z,101278.45
2023-01-17T18:24:48.749Z,101283.42
2023-01-17T18:26:59.592Z,101283.58
2023-01-17T18:29:11.383Z,101293.38
2023-01-17T18:31:21.316Z,101292.75
2023-01-17T18:33:31.219Z,101291.45
2023-01-17T18:35:41.433Z,101286.70
2023-01-17T18:37:51.402Z,101288.05
2023-01-17T18:40:03.283Z,101292.30
2023-01-17T18:42:13.254Z,101297.77
2023-01-17T18:44:23.318Z,101292.02
2023-01-17T18:46:33.802Z,101296.05
2023-01-17T18:48:44.548Z,101293.11
2023-01-17T18:51:04.579Z,101296.92
2023-01-17T18:53:14.507Z,101293.52
2023-01-17T18:55:24.454Z,101296.02
2023-01-17T18:57:34.238Z,101292.86
2023-01-17T18:59:45.069Z,101290.16
2023-01-17T19:01:55.098Z,101291.35
2023-01-17T19:04:06.258Z,101284.85
2023-01-17T19:06:18.927Z,101288.04
2023-01-17T19:08:30.605Z,101284.52
2023-01-17T19:10:40.383Z,101285.08
2023-01-17T19:12:50.289Z,101281.64
2023-01-17T19:15:00.152Z,101281.86
2023-01-17T19:17:10.307Z,101279.87
2023-01-17T19:19:20.328Z,101273.14
2023-01-17T19:21:32.561Z,101278.86
2023-01-17T19:23:43.701Z,101275.13
2023-01-17T19:25:58.483Z,101272.59
2023-01-17T19:28:08.775Z,101271.44
2023-01-17T19:30:19.896Z,101264.20
2023-01-17T19:32:29.340Z,101262.58
2023-01-17T19:34:38.705Z,101261.52
2023-01-17T19:36:48.811Z,101260.91
2023-01-17T19:39:04.870Z,101256.41
2023-01-17T19:41:16.816Z,101258.20
2023-01-17T19:43:28.958Z,101255.45
2023-01-17T19:45:39.529Z,101256.10
2023-01-17T19:47:50.027Z,101256.34
2023-01-17T19:50:00.184Z,101249.31
2023-01-17T19:52:10.221Z,101245.64
2023-01-17T19:54:20.649Z,101247.70
2023-01-17T19:56:32.082Z,101249.34
2023-01-17T19:58:42.671Z,101243.80
2023-01-17T20:00:53.609Z,101237.41
2023-01-17T20:03:04.321Z,101239.64
2023-01-17T20:05:16.163Z,101240.29
2023-01-17T20:07:27.864Z,101238.61
2023-01-17T20:09:38.853Z,101239.88
2023-01-17T20:11:51.034Z,101232.35
2023-01-17T20:14:01.561Z,101229.17
2023-01-17T20:16:14.026Z,101227.57
2023-01-17T20:18:24.051Z,101229.40
2023-01-17T20:20:34.818Z,101232.44
2023-01-17T20:22:48.250Z,101227.44
2023-01-17T20:24:57.836Z,101226.61
2023-01-17T20:27:07.975Z,101230.80
2023-01-17T20:29:18.982Z,101220.72
2023-01-17T20:31:30.451Z,101218.51
2023-01-17T20:33:40.655Z,101217.98
2023-01-17T20:36:04.880Z,101214.83
2023-01-17T20:38:19.471Z,101215.05
2023-01-17T20:40:29.500Z,101210.33
2023-01-17T20:42:41.188Z,101210.11
2023-01-17T20:44:51.317Z,101209.56
2023-01-17T20:47:01.085Z,101211.78
2023-01-17T20:49:15.330Z,101207.73
2023-01-17T20:51:26.590Z,101205.55
2023-01-17T20:53:36.698Z,101206.46
2023-01-17T20:55:48.769Z,101206.83
2023-01-17T20:58:00.070Z,101206.68
2023-01-17T21:00:13.504Z,101199.80
2023-01-17T21:02:23.911Z,101199.69
2023-01-17T21:04:34.057Z,101197.11
2023-01-17T21:06:44.627Z,101194.27
2023-01-17T21:08:55.158Z,101194.24
2023-01-17T21:11:05.233Z,101191.75
2023-01-17T21:13:15.181Z,101186.33
2023-01-17T21:15:25.096Z,101190.77
2023-01-17T21:17:36.316Z,101188.16
2023-01-17T21:19:46.016Z,101184.09
2023-01-17T21:21:56.615Z,101183.34
2023-01-17T21:24:06.723Z,101178.90
2023-01-17T21:26:18.482Z,101170.84
2023-01-17T21:28:29.448Z,101169.81
2023-01-17T21:30:40.025Z,101171.71
2023-01-17T21:32:50.126Z,101166.50
2023-01-17T21:34:59.676Z,101166.83
2023-01-17T21:37:09.598Z,101164.77
2023-01-17T21:39:20.583Z,101165.81
2023-01-17T21:41:31.692Z,101167.95
2023-01-17T21:43:41.414Z,101167.34
2023-01-17T21:45:52.802Z,101168.92
2023-01-17T21:48:03.140Z,101168.94
2023-01-17T21:50:28.455Z,101168.75
2023-01-17T21:52:42.771Z,101162.98
2023-01-17T21:55:09.537Z,101165.80
2023-01-17T21:57:38.271Z,101165.61
2023-01-17T21:59:48.088Z,101171.34
2023-01-17T22:01:58.712Z,101164.73
2023-01-17T22:04:10.458Z,101164.55
2023-01-17T22:06:20.413Z,101163.83
2023-01-17T22:08:35.660Z,101166.63
2023-01-17T22:10:48.486Z,101162.60
2023-01-17T22:12:58.323Z,101165.44
2023-01-17T22:15:09.475Z,101162.83
2023-01-17T22:17:19.732Z,101161.45
2023-01-17T22:19:29.918Z,101164.48
2023-01-17T22:21:39.818Z,101162.30
2023-01-17T22:23:52.448Z,101165.03
2023-01-17T22:26:08.140Z,101166.34
2023-01-17T22:28:18.201Z,101169.52
2023-01-17T22:30:28.022Z,101170.45
2023-01-17T22:32:37.899Z,101171.73
2023-01-17T22:34:48.225Z,101171.16
2023-01-17T22:36:58.095Z,101171.98
2023-01-17T22:39:07.847Z,101168.80
2023-01-17T22:41:20.447Z,101173.61
2023-01-17T22:43:31.070Z,101173.55
2023-01-17T22:45:40.828Z,101173.64
2023-01-17T22:47:50.911Z,101170.08
2023-01-17T22:50:01.299Z,101172.77
2023-01-17T22:52:11.259Z,101172.81
2023-01-17T22:54:24.664Z,101177.41
2023-01-17T22:56:37.306Z,101176.09
2023-01-17T22:58:49.049Z,101174.36
2023-01-17T23:01:05.130Z,101173.15
2023-01-17T23:03:15.123Z,101174.59
2023-01-17T23:05:26.016Z,101175.55
2023-01-17T23:07:44.200Z,101177.28
2023-01-17T23:09:53.909Z,101174.85
2023-01-17T23:12:03.748Z,101180.42
2023-01-17T23:14:16.552Z,101179.36
2023-01-17T23:16:43.661Z,101179.48
2023-01-17T23:19:10.543Z,101179.95
2023-01-17T23:21:20.194Z,101181.79
2023-01-17T23:23:29.847Z,101182.12
2023-01-17T23:25:39.865Z,101179.05
2023-01-17T23:28:07.863Z,101181.27
2023-01-17T23:30:20.615Z,101179.63
2023-01-17T23:32:31.057Z,101182.84
2023-01-17T23:34:40.748Z,101181.66
2023-01-17T23:36:50.890Z,101183.05
2023-01-17T23:39:00.827Z,101177.83
2023-01-17T23:41:28.706Z,101175.45
2023-01-17T23:43:38.912Z,101175.67
2023-01-17T23:45:48.818Z,101171.81
2023-01-17T23:47:58.739Z,101172.58
2023-01-17T23:50:09.533Z,101170.83
2023-01-17T23:52:19.170Z,101172.34
2023-01-17T23:54:32.358Z,101175.71
2023-01-17T23:56:42.028Z,101176.15
2023-01-17T23:58:51.927Z,101187.71
